Time;durP1;ratioP1;P1;durP2;ratioP2;P2;SDS_P1;SDS_P2;PMS_P1;PMS_P2;Temp;Humidity;BMP_temperature;BMP_pressure;BME280_temperature;BME280_humidity;BME280_pressure;Samples;Min_cycle;Max_cycle;Signal;HPM_P1;HPM_P2
2023/03/29 00:00:43;;;;;;;34.00;12.07;;;-4.80;99.90;;;;;;5130501;27;20221;-68
2023/03/29 00:03:30;;;;;;;55.63;15.17;;;-4.80;99.90;;;;;;5130663;27;20205;-69
2023/03/29 00:06:21;;;;;;;52.67;18.70;;;-4.80;99.90;;;;;;5137555;27;20200;-68
2023/03/29 00:09:10;;;;;;;47.10;15.60;;;-5.00;99.90;;;;;;5135737;27;20630;-69
2023/03/29 00:11:57;;;;;;;107.50;28.97;;;-5.10;99.90;;;;;;5143003;27;20222;-68
2023/03/29 00:14:45;;;;;;;69.03;21.00;;;-5.10;99.90;;;;;;5134521;27;20202;-68
2023/03/29 00:17:32;;;;;;;45.37;15.10;;;-5.30;99.90;;;;;;5141373;27;20245;-68
2023/03/29 00:20:19;;;;;;;54.60;16.37;;;-5.30;99.90;;;;;;5137521;27;20230;-68
2023/03/29 00:23:06;;;;;;;45.00;13.80;;;-5.40;99.90;;;;;;5139817;27;20197;-68
2023/03/29 00:25:55;;;;;;;57.60;17.80;;;-5.40;99.90;;;;;;5143556;27;20568;-68
2023/03/29 00:28:42;;;;;;;46.20;14.40;;;-5.50;99.90;;;;;;5140190;27;20561;-68
2023/03/29 00:31:30;;;;;;;57.67;16.43;;;-5.60;99.90;;;;;;5134847;27;20198;-68
2023/03/29 00:34:17;;;;;;;49.80;15.10;;;-5.60;99.90;;;;;;5145097;27;20655;-68
2023/03/29 00:37:06;;;;;;;47.40;15.77;;;-5.70;99.90;;;;;;5131425;27;20320;-68
2023/03/29 00:39:53;;;;;;;42.60;14.10;;;-5.80;99.90;;;;;;5135961;27;20764;-68
2023/03/29 00:42:44;;;;;;;37.67;12.63;;;-5.90;99.90;;;;;;5139424;27;20198;-68
2023/03/29 00:45:34;;;;;;;32.77;12.73;;;-5.90;99.90;;;;;;5143949;27;20704;-68
2023/03/29 00:48:23;;;;;;;34.77;13.20;;;-6.00;99.90;;;;;;5139376;27;21180;-69
2023/03/29 00:51:10;;;;;;;38.47;14.13;;;-6.00;99.90;;;;;;5139302;27;20607;-68
2023/03/29 00:53:59;;;;;;;35.87;12.17;;;-6.20;99.90;;;;;;5135289;27;21291;-68
2023/03/29 00:56:48;;;;;;;48.87;15.57;;;-6.30;99.90;;;;;;5139592;27;20631;-68
2023/03/29 00:59:37;;;;;;;53.03;15.03;;;-6.30;99.90;;;;;;5134492;27;20623;-68
2023/03/29 01:02:25;;;;;;;34.37;12.87;;;-6.30;99.90;;;;;;5141504;27;20600;-68
2023/03/29 01:05:13;;;;;;;44.07;13.73;;;-6.40;99.90;;;;;;5143541;27;20776;-68
2023/03/29 01:08:02;;;;;;;34.83;12.23;;;-6.40;99.90;;;;;;5144137;27;20616;-68
2023/03/29 01:10:51;;;;;;;39.07;13.27;;;-6.50;99.90;;;;;;5135115;27;20632;-68
2023/03/29 01:13:41;;;;;;;33.57;12.67;;;-6.50;99.90;;;;;;5142018;27;20651;-69
2023/03/29 01:16:30;;;;;;;38.33;13.20;;;-6.60;99.90;;;;;;5139727;27;20995;-68
2023/03/29 01:19:20;;;;;;;30.03;12.83;;;-6.60;99.90;;;;;;5146894;27;20617;-68
2023/03/29 01:22:13;;;;;;;38.63;13.53;;;-6.60;99.90;;;;;;5140745;27;21199;-68
2023/03/29 01:25:06;;;;;;;48.97;17.70;;;-6.60;99.90;;;;;;5137719;27;21517;-68
2023/03/29 01:27:56;;;;;;;92.43;29.80;;;-6.70;99.90;;;;;;5137091;27;20619;-68
2023/03/29 01:30:45;;;;;;;87.07;26.33;;;-6.70;99.90;;;;;;5137738;27;20709;-68
2023/03/29 01:33:33;;;;;;;92.80;30.37;;;-6.80;99.90;;;;;;5145699;27;20635;-68
2023/03/29 01:36:23;;;;;;;86.20;27.97;;;-6.80;99.90;;;;;;5136980;27;20621;-68
2023/03/29 01:39:10;;;;;;;73.80;24.77;;;-6.80;99.90;;;;;;5137426;27;20606;-68
2023/03/29 01:42:04;;;;;;;61.30;20.30;;;-6.80;99.90;;;;;;5137803;27;20612;-68
2023/03/29 01:44:55;;;;;;;44.17;16.10;;;-6.80;99.90;;;;;;5143340;27;20623;-68
2023/03/29 01:47:46;;;;;;;45.20;16.00;;;-6.80;99.90;;;;;;5133526;27;20616;-68
2023/03/29 01:50:38;;;;;;;40.73;15.43;;;-6.90;99.90;;;;;;5135779;27;20706;-68
2023/03/29 01:53:27;;;;;;;37.70;14.43;;;-7.00;99.90;;;;;;5141545;27;20642;-68
2023/03/29 01:56:16;;;;;;;40.20;15.03;;;-7.00;99.90;;;;;;5140632;27;20631;-67
2023/03/29 01:59:04;;;;;;;38.70;13.83;;;-7.00;99.90;;;;;;5143991;27;20722;-68
2023/03/29 02:01:53;;;;;;;43.57;15.97;;;-7.10;99.90;;;;;;5140287;27;20651;-69
2023/03/29 02:04:46;;;;;;;73.03;25.37;;;-7.20;99.90;;;;;;5140567;27;20607;-69
2023/03/29 02:07:36;;;;;;;55.10;21.00;;;-7.20;99.90;;;;;;5142855;27;20654;-68
2023/03/29 02:10:24;;;;;;;59.57;21.93;;;-7.30;99.90;;;;;;5132896;27;20643;-68
2023/03/29 02:13:11;;;;;;;80.23;27.77;;;-7.30;99.90;;;;;;5137974;27;21258;-68
2023/03/29 02:16:02;;;;;;;65.13;23.57;;;-7.30;99.90;;;;;;5137592;27;20612;-68
2023/03/29 02:18:51;;;;;;;56.13;20.70;;;-7.30;99.90;;;;;;5141493;27;20607;-68
2023/03/29 02:21:40;;;;;;;50.20;18.97;;;-7.40;99.90;;;;;;5139927;27;20620;-68
2023/03/29 02:24:29;;;;;;;41.23;15.03;;;-7.40;99.90;;;;;;5142375;27;20603;-68
2023/03/29 02:27:16;;;;;;;45.73;15.47;;;-7.40;99.90;;;;;;5140953;27;21161;-68
2023/03/29 02:30:04;;;;;;;39.53;14.07;;;-7.40;99.90;;;;;;5141122;27;20615;-68
2023/03/29 02:32:54;;;;;;;39.03;14.63;;;-7.50;99.90;;;;;;5144035;27;21330;-68
2023/03/29 02:35:45;;;;;;;51.13;18.83;;;-7.60;99.90;;;;;;5133870;27;20611;-68
2023/03/29 02:38:32;;;;;;;51.10;19.00;;;-7.50;99.90;;;;;;5141250;27;21185;-68
2023/03/29 02:41:20;;;;;;;51.57;16.53;;;-7.60;99.90;;;;;;5143127;27;20621;-68
2023/03/29 02:44:07;;;;;;;41.70;15.53;;;-7.60;99.90;;;;;;5141333;27;21141;-68
2023/03/29 02:46:56;;;;;;;56.27;17.20;;;-7.70;99.90;;;;;;5140169;27;20600;-68
2023/03/29 02:49:43;;;;;;;72.77;23.87;;;-7.70;99.90;;;;;;5141544;27;20614;-68
2023/03/29 02:52:34;;;;;;;70.93;24.53;;;-7.80;99.90;;;;;;5139268;27;21177;-68
2023/03/29 02:55:23;;;;;;;84.47;26.57;;;-7.70;99.90;;;;;;5136569;27;21156;-68
2023/03/29 02:58:12;;;;;;;82.70;25.90;;;-7.80;99.90;;;;;;5140216;27;20615;-68
2023/03/29 03:00:59;;;;;;;70.50;21.93;;;-7.80;99.90;;;;;;5141462;27;20739;-68
2023/03/29 03:03:47;;;;;;;47.30;16.53;;;-7.80;99.90;;;;;;5142842;27;21169;-68
2023/03/29 03:06:35;;;;;;;40.13;15.10;;;-7.80;99.90;;;;;;5136209;27;21163;-68
2023/03/29 03:09:24;;;;;;;47.63;16.00;;;-7.80;99.90;;;;;;5134740;27;20646;-67
2023/03/29 03:12:11;;;;;;;61.67;20.23;;;-7.90;99.90;;;;;;5144159;27;20627;-68
2023/03/29 03:14:58;;;;;;;43.33;16.33;;;-8.00;99.90;;;;;;5143084;27;20623;-68
2023/03/29 03:17:45;;;;;;;60.83;18.83;;;-8.00;99.90;;;;;;5136591;27;20612;-68
2023/03/29 03:20:33;;;;;;;46.57;16.60;;;-8.00;99.90;;;;;;5137882;27;20608;-68
2023/03/29 03:23:21;;;;;;;48.73;15.57;;;-8.00;99.90;;;;;;5142211;27;20595;-68
2023/03/29 03:26:10;;;;;;;44.20;14.80;;;-8.00;99.90;;;;;;5141313;27;20623;-68
2023/03/29 03:28:57;;;;;;;48.50;14.80;;;-8.00;99.90;;;;;;5141322;27;20640;-68
2023/03/29 03:31:44;;;;;;;41.80;14.67;;;-8.00;99.90;;;;;;5135685;27;21203;-67
2023/03/29 03:34:33;;;;;;;45.37;17.20;;;-8.00;99.90;;;;;;5134129;27;20639;-67
2023/03/29 03:37:21;;;;;;;47.90;16.83;;;-8.00;99.90;;;;;;5137270;27;20603;-68
2023/03/29 03:40:10;;;;;;;40.93;15.83;;;-8.10;99.90;;;;;;5137304;27;21221;-68
2023/03/29 03:42:59;;;;;;;46.40;16.13;;;-8.10;99.90;;;;;;5143216;27;21177;-68
2023/03/29 03:45:46;;;;;;;45.33;16.47;;;-8.00;99.90;;;;;;5144632;27;20662;-67
2023/03/29 03:48:33;;;;;;;43.33;17.17;;;-8.00;99.90;;;;;;5140243;27;20626;-68
2023/03/29 03:51:21;;;;;;;55.53;19.80;;;-8.10;99.90;;;;;;5145087;27;20618;-68
2023/03/29 03:54:08;;;;;;;55.37;22.40;;;-8.10;99.90;;;;;;5147786;27;20643;-68
2023/03/29 03:56:55;;;;;;;46.00;17.60;;;-8.10;99.90;;;;;;5142900;27;20990;-68
2023/03/29 03:59:44;;;;;;;46.20;16.17;;;-8.10;99.90;;;;;;5143108;27;20596;-68
2023/03/29 04:02:31;;;;;;;47.03;18.90;;;-8.10;99.90;;;;;;5142836;27;20610;-67
2023/03/29 04:05:18;;;;;;;44.00;16.17;;;-8.10;99.90;;;;;;5146787;27;20686;-67
2023/03/29 04:08:06;;;;;;;49.83;16.93;;;-8.10;99.90;;;;;;5143083;27;20608;-67
2023/03/29 04:10:54;;;;;;;40.93;16.23;;;-8.10;99.90;;;;;;5135551;27;20793;-68
2023/03/29 04:13:41;;;;;;;46.77;16.90;;;-8.10;99.90;;;;;;5137740;27;20730;-68
2023/03/29 04:16:29;;;;;;;47.67;17.30;;;-8.00;99.90;;;;;;5141952;27;20619;-68
2023/03/29 04:19:17;;;;;;;46.23;16.27;;;-7.90;99.90;;;;;;5145063;27;20623;-68
2023/03/29 04:22:04;;;;;;;45.97;15.90;;;-7.80;99.90;;;;;;5137276;27;20630;-68
2023/03/29 04:24:51;;;;;;;56.93;16.27;;;-7.70;99.90;;;;;;5134077;27;20616;-68
2023/03/29 04:27:38;;;;;;;44.43;17.77;;;-7.60;99.90;;;;;;5143095;27;20613;-67
2023/03/29 04:30:26;;;;;;;42.60;15.90;;;-7.60;99.90;;;;;;5144423;27;20607;-68
2023/03/29 04:33:14;;;;;;;43.70;15.67;;;-7.50;99.90;;;;;;5145327;27;20665;-68
2023/03/29 04:36:01;;;;;;;44.40;15.73;;;-7.30;99.90;;;;;;5137241;27;20986;-67
2023/03/29 04:38:51;;;;;;;42.30;15.90;;;-7.30;99.90;;;;;;5134265;27;21006;-68
2023/03/29 04:41:38;;;;;;;42.80;16.60;;;-7.20;99.90;;;;;;5141649;27;20619;-68
2023/03/29 04:44:25;;;;;;;53.03;16.50;;;-7.20;99.90;;;;;;5139921;27;20604;-67
2023/03/29 04:47:13;;;;;;;38.93;15.70;;;-7.20;99.90;;;;;;5143702;27;20614;-68
2023/03/29 04:50:02;;;;;;;44.10;16.77;;;-7.20;99.90;;;;;;5138674;27;20608;-68
2023/03/29 04:52:49;;;;;;;39.33;16.67;;;-7.10;99.90;;;;;;5136454;27;20664;-68
2023/03/29 04:55:36;;;;;;;42.60;16.27;;;-7.00;99.90;;;;;;5139652;27;20607;-68
2023/03/29 04:58:24;;;;;;;43.30;16.33;;;-7.00;99.90;;;;;;5143496;27;20687;-68
2023/03/29 05:01:11;;;;;;;46.13;17.50;;;-7.00;99.90;;;;;;5143626;27;20650;-68
2023/03/29 05:03:58;;;;;;;42.57;16.20;;;-6.90;99.90;;;;;;5141534;27;20612;-68
2023/03/29 05:06:47;;;;;;;45.70;17.37;;;-6.80;99.90;;;;;;5137660;27;21048;-68
2023/03/29 05:09:35;;;;;;;49.33;18.27;;;-6.70;99.90;;;;;;5138975;27;21103;-68
2023/03/29 05:12:22;;;;;;;43.83;16.73;;;-6.50;99.90;;;;;;5144193;27;21103;-68
2023/03/29 05:15:10;;;;;;;41.63;17.43;;;-6.50;99.90;;;;;;5139676;27;21122;-67
2023/03/29 05:17:59;;;;;;;41.27;17.80;;;-6.30;99.90;;;;;;5135323;27;20641;-68
2023/03/29 05:20:46;;;;;;;52.47;19.97;;;-6.10;99.90;;;;;;5136149;27;21208;-68
2023/03/29 05:23:35;;;;;;;51.43;20.70;;;-5.80;99.90;;;;;;5138585;27;20611;-67
2023/03/29 05:26:22;;;;;;;51.00;20.63;;;-5.60;99.90;;;;;;5142521;27;20641;-68
2023/03/29 05:29:11;;;;;;;49.63;20.53;;;-5.40;99.90;;;;;;5145844;27;21115;-68
2023/03/29 05:31:58;;;;;;;51.97;20.60;;;-5.10;99.90;;;;;;5145256;27;20624;-68
2023/03/29 05:34:45;;;;;;;56.53;21.80;;;-4.90;99.90;;;;;;5133881;27;20658;-68
2023/03/29 05:37:33;;;;;;;55.50;22.37;;;-4.70;99.90;;;;;;5137517;27;21195;-67
2023/03/29 05:40:25;;;;;;;54.80;23.50;;;-4.50;99.90;;;;;;5138958;27;20608;-69
2023/03/29 05:43:12;;;;;;;52.87;23.37;;;-4.30;99.90;;;;;;5134569;27;20627;-68
2023/03/29 05:45:59;;;;;;;50.07;21.03;;;-4.20;99.90;;;;;;5136978;27;20616;-68
2023/03/29 05:48:46;;;;;;;67.70;23.60;;;-4.10;99.90;;;;;;5135417;27;20623;-67
2023/03/29 05:51:34;;;;;;;49.23;19.83;;;-3.90;99.90;;;;;;5133169;27;20615;-69
2023/03/29 05:54:21;;;;;;;55.80;21.73;;;-3.70;99.90;;;;;;5136027;27;20683;-69
2023/03/29 05:57:10;;;;;;;40.23;18.10;;;-3.60;99.90;;;;;;5145046;27;20610;-68
2023/03/29 05:59:58;;;;;;;42.13;19.33;;;-3.50;99.90;;;;;;5137427;27;20203;-68
2023/03/29 06:02:45;;;;;;;53.57;19.43;;;-3.40;99.90;;;;;;5133752;27;20569;-68
2023/03/29 06:05:33;;;;;;;46.77;19.23;;;-3.30;99.90;;;;;;5141729;27;20202;-68
2023/03/29 06:08:21;;;;;;;47.40;18.53;;;-3.20;99.90;;;;;;5142043;27;20283;-68
2023/03/29 06:11:09;;;;;;;30.20;13.27;;;-3.10;99.90;;;;;;5141239;27;20201;-68
2023/03/29 06:13:58;;;;;;;38.23;15.30;;;-2.90;99.90;;;;;;5139342;27;20848;-68
2023/03/29 06:16:45;;;;;;;30.00;10.93;;;-2.80;99.90;;;;;;5141722;27;20202;-69
2023/03/29 06:19:33;;;;;;;34.13;12.43;;;-2.70;99.90;;;;;;5131503;27;20198;-68
2023/03/29 06:22:20;;;;;;;32.37;14.00;;;-2.50;99.90;;;;;;5127043;27;20206;-68
2023/03/29 06:25:09;;;;;;;30.23;13.03;;;-2.40;99.90;;;;;;5131111;27;20567;-68
2023/03/29 06:27:57;;;;;;;36.50;12.97;;;-2.20;99.90;;;;;;5132955;27;20198;-68
2023/03/29 06:30:46;;;;;;;30.57;13.93;;;-2.10;99.90;;;;;;5131926;27;20244;-68
2023/03/29 06:33:35;;;;;;;34.90;13.97;;;-2.00;99.90;;;;;;5135231;27;20199;-68
2023/03/29 06:36:23;;;;;;;25.47;11.47;;;-1.80;99.90;;;;;;5132358;27;20241;-69
2023/03/29 06:39:10;;;;;;;31.30;13.40;;;-1.80;99.90;;;;;;5136550;27;20222;-68
2023/03/29 06:41:57;;;;;;;36.20;13.97;;;-1.70;99.90;;;;;;5137927;27;20198;-68
2023/03/29 06:44:44;;;;;;;28.00;12.13;;;-1.50;99.90;;;;;;5137524;27;20652;-68
2023/03/29 06:47:33;;;;;;;28.43;12.50;;;-1.40;99.90;;;;;;5126291;27;20640;-68
2023/03/29 06:50:21;;;;;;;35.47;15.00;;;-1.30;99.90;;;;;;5136475;27;20606;-68
2023/03/29 06:53:08;;;;;;;31.33;12.57;;;-1.30;99.90;;;;;;5134490;27;20738;-69
2023/03/29 06:55:55;;;;;;;32.57;13.77;;;-1.30;99.90;;;;;;5144408;27;20213;-68
2023/03/29 06:58:43;;;;;;;34.00;14.27;;;-1.20;99.90;;;;;;5139877;27;20272;-68
2023/03/29 07:01:31;;;;;;;29.50;14.43;;;-1.10;99.90;;;;;;5141502;27;20218;-68
2023/03/29 07:04:21;;;;;;;25.33;11.53;;;-0.90;99.90;;;;;;5137508;27;20201;-67
2023/03/29 07:07:18;;;;;;;24.17;10.03;;;-0.80;99.90;;;;;;5141535;27;20736;-68
2023/03/29 07:10:07;;;;;;;36.80;13.47;;;-0.80;99.90;;;;;;5140425;27;20370;-68
2023/03/29 07:12:54;;;;;;;37.03;15.23;;;-0.70;99.90;;;;;;5132028;27;20246;-68
2023/03/29 07:15:41;;;;;;;24.40;10.77;;;-0.50;99.90;;;;;;5134028;27;20800;-68
2023/03/29 07:18:29;;;;;;;36.37;15.63;;;-0.40;99.90;;;;;;5127294;27;20198;-69
2023/03/29 07:21:19;;;;;;;34.37;14.20;;;-0.30;99.90;;;;;;5139091;27;20204;-68
2023/03/29 07:24:09;;;;;;;28.53;12.87;;;-0.20;99.90;;;;;;5142076;27;20573;-68
2023/03/29 07:26:57;;;;;;;32.47;13.87;;;-0.30;99.90;;;;;;5141292;27;20231;-68
2023/03/29 07:29:44;;;;;;;32.57;13.73;;;-0.20;99.90;;;;;;5143217;27;20294;-68
2023/03/29 07:32:31;;;;;;;37.70;15.00;;;0.00;99.90;;;;;;5139560;27;20292;-69
2023/03/29 07:35:19;;;;;;;37.97;16.73;;;0.20;99.90;;;;;;5144817;27;20316;-69
2023/03/29 07:38:08;;;;;;;35.70;15.63;;;0.20;99.90;;;;;;5145215;27;20698;-69
2023/03/29 07:40:56;;;;;;;39.80;16.60;;;0.30;99.90;;;;;;5138147;27;20198;-69
2023/03/29 07:43:43;;;;;;;30.50;13.13;;;0.20;99.90;;;;;;5139106;27;20785;-69
2023/03/29 07:46:30;;;;;;;36.70;14.23;;;0.40;99.90;;;;;;5146980;27;20190;-68
2023/03/29 07:49:18;;;;;;;27.03;10.73;;;0.50;99.90;;;;;;5141291;27;20578;-68
2023/03/29 07:52:05;;;;;;;30.93;12.43;;;0.70;99.90;;;;;;5143814;27;20683;-69
2023/03/29 07:54:54;;;;;;;25.07;11.37;;;0.90;99.90;;;;;;5138720;27;20218;-68
2023/03/29 07:57:43;;;;;;;22.87;8.50;;;1.10;99.90;;;;;;5137394;27;20202;-69
2023/03/29 08:00:31;;;;;;;14.47;7.00;;;1.10;98.10;;;;;;5133691;27;20218;-69
2023/03/29 08:03:19;;;;;;;17.90;7.13;;;0.90;94.10;;;;;;5136059;27;20201;-69
2023/03/29 08:06:06;;;;;;;14.33;6.10;;;1.20;96.90;;;;;;5139654;27;20208;-68
2023/03/29 08:08:54;;;;;;;17.57;7.37;;;1.30;90.40;;;;;;5133311;27;20234;-69
2023/03/29 08:11:42;;;;;;;23.43;8.00;;;1.20;88.30;;;;;;5136185;27;20195;-69
2023/03/29 08:14:30;;;;;;;17.77;7.30;;;1.20;91.00;;;;;;5131289;27;20215;-70
2023/03/29 08:17:17;;;;;;;15.10;6.97;;;1.60;92.00;;;;;;5136965;27;20573;-69
2023/03/29 08:20:05;;;;;;;20.17;8.87;;;1.90;90.50;;;;;;5141127;27;20198;-69
2023/03/29 08:22:54;;;;;;;19.60;8.17;;;2.10;92.10;;;;;;5137304;27;20191;-69
2023/03/29 08:25:41;;;;;;;14.80;6.80;;;2.40;91.20;;;;;;5137191;27;20204;-68
2023/03/29 08:28:30;;;;;;;17.37;7.47;;;2.30;80.30;;;;;;5139080;27;20186;-69
2023/03/29 08:31:17;;;;;;;16.13;7.40;;;2.20;84.70;;;;;;5140827;27;20666;-68
2023/03/29 08:34:04;;;;;;;14.97;5.57;;;2.00;83.60;;;;;;5134255;27;20606;-69
2023/03/29 08:36:53;;;;;;;15.70;5.97;;;2.10;80.90;;;;;;5139155;27;20190;-70
2023/03/29 08:39:40;;;;;;;18.37;6.30;;;2.40;80.70;;;;;;5140479;27;20217;-69
2023/03/29 08:42:51;;;;;;;18.47;8.70;;;2.80;83.60;;;;;;5138912;27;20873;-70
2023/03/29 08:45:44;;;;;;;16.87;7.37;;;3.00;83.60;;;;;;5136740;27;20189;-68
2023/03/29 08:48:32;;;;;;;16.30;5.53;;;3.10;84.30;;;;;;5138250;27;20198;-68
2023/03/29 08:51:21;;;;;;;13.40;5.30;;;3.40;83.00;;;;;;5136680;27;20209;-69
2023/03/29 08:54:11;;;;;;;10.53;4.00;;;3.20;73.50;;;;;;5136393;27;20202;-69
2023/03/29 08:57:01;;;;;;;8.07;3.83;;;3.30;73.30;;;;;;5134178;27;20199;-70
2023/03/29 08:59:49;;;;;;;12.93;4.67;;;3.40;73.00;;;;;;5139587;27;20259;-69
2023/03/29 09:02:38;;;;;;;12.27;4.00;;;3.60;73.80;;;;;;5140228;27;20194;-70
2023/03/29 09:05:27;;;;;;;13.17;5.43;;;3.80;75.60;;;;;;5145339;27;20202;-69
2023/03/29 09:08:16;;;;;;;11.00;4.70;;;4.00;72.10;;;;;;5144504;27;20214;-69
2023/03/29 09:11:12;;;;;;;10.40;3.77;;;3.80;71.20;;;;;;5142722;27;20210;-70
2023/03/29 09:14:07;;;;;;;6.53;3.33;;;4.10;81.60;;;;;;5142096;27;20202;-70
2023/03/29 09:16:57;;;;;;;8.93;3.87;;;4.60;78.20;;;;;;5144124;27;20202;-69
2023/03/29 09:19:49;;;;;;;15.00;4.30;;;4.30;67.30;;;;;;5133141;27;20209;-69
2023/03/29 09:22:38;;;;;;;9.30;4.37;;;4.20;68.90;;;;;;5142743;27;20194;-70
2023/03/29 09:25:27;;;;;;;6.93;3.03;;;3.90;67.20;;;;;;5140159;27;20561;-68
2023/03/29 09:28:17;;;;;;;11.87;4.10;;;3.90;70.40;;;;;;5143083;27;20198;-70
2023/03/29 09:31:06;;;;;;;11.33;4.30;;;4.00;72.90;;;;;;5141720;27;20273;-69
2023/03/29 09:33:56;;;;;;;5.87;3.30;;;4.50;75.20;;;;;;5143685;27;20285;-69
2023/03/29 09:36:48;;;;;;;11.00;4.10;;;4.70;71.40;;;;;;5142729;27;20214;-69
2023/03/29 09:39:36;;;;;;;7.80;2.77;;;4.40;71.00;;;;;;5140063;27;20206;-69
2023/03/29 09:42:24;;;;;;;5.60;2.97;;;4.60;67.30;;;;;;5140804;27;20200;-70
2023/03/29 09:45:12;;;;;;;6.30;2.40;;;4.00;63.70;;;;;;5142078;27;20321;-69
2023/03/29 09:48:00;;;;;;;9.73;3.57;;;4.40;64.40;;;;;;5146024;27;20612;-69
2023/03/29 09:50:47;;;;;;;5.30;2.60;;;4.70;77.00;;;;;;5141448;27;20194;-69
2023/03/29 09:53:36;;;;;;;6.23;2.97;;;5.30;72.60;;;;;;5139354;27;20198;-69
2023/03/29 09:56:23;;;;;;;8.27;2.50;;;4.60;65.70;;;;;;5141864;27;20708;-69
2023/03/29 09:59:11;;;;;;;6.80;2.37;;;5.10;68.30;;;;;;5144317;27;20218;-70
2023/03/29 10:02:06;;;;;;;3.87;1.93;;;4.90;64.20;;;;;;5145950;27;20225;-69
2023/03/29 10:04:55;;;;;;;5.20;2.00;;;4.90;57.90;;;;;;5142079;27;20208;-69
2023/03/29 10:07:45;;;;;;;5.13;2.33;;;5.00;59.90;;;;;;5138842;27;20279;-69
2023/03/29 10:10:35;;;;;;;5.37;1.90;;;5.30;60.60;;;;;;5138946;27;20234;-67
2023/03/29 10:13:29;;;;;;;5.10;2.17;;;5.50;53.40;;;;;;5140538;27;20273;-69
2023/03/29 10:16:21;;;;;;;3.13;1.77;;;5.00;54.60;;;;;;5143853;27;20214;-69
2023/03/29 10:19:19;;;;;;;5.10;1.97;;;5.20;54.60;;;;;;5140593;27;20209;-68
2023/03/29 10:22:08;;;;;;;5.73;2.50;;;5.70;56.30;;;;;;5141610;27;20210;-69
2023/03/29 10:24:56;;;;;;;5.33;2.27;;;5.60;59.10;;;;;;5142852;27;20194;-70
2023/03/29 10:27:46;;;;;;;4.27;2.50;;;6.00;61.00;;;;;;5141211;27;20199;-68
2023/03/29 10:30:35;;;;;;;3.20;1.73;;;6.30;54.30;;;;;;5146684;27;20603;-69
2023/03/29 10:33:23;;;;;;;4.47;2.13;;;6.20;57.10;;;;;;5141944;27;20186;-68
2023/03/29 10:36:10;;;;;;;4.67;2.20;;;6.40;56.70;;;;;;5142222;27;21018;-68
2023/03/29 10:38:59;;;;;;;4.67;1.60;;;6.40;55.80;;;;;;5138999;27;20205;-68
2023/03/29 10:41:49;;;;;;;3.50;2.37;;;6.70;53.00;;;;;;5142749;27;20202;-68
2023/03/29 10:44:38;;;;;;;5.73;2.43;;;6.60;54.60;;;;;;5134845;27;20204;-69
2023/03/29 10:47:25;;;;;;;5.80;2.30;;;6.40;53.80;;;;;;5134804;27;20191;-69
2023/03/29 10:50:15;;;;;;;5.57;1.73;;;6.50;52.70;;;;;;5136898;27;20194;-67
2023/03/29 10:53:03;;;;;;;5.50;2.23;;;6.40;52.90;;;;;;5143361;27;20198;-68
2023/03/29 10:55:56;;;;;;;2.87;1.60;;;6.70;52.10;;;;;;5145166;27;20722;-69
2023/03/29 10:59:08;;;;;;;7.30;2.80;;;6.30;49.40;;;;;;5140946;27;20725;-70
2023/03/29 11:02:30;;;;;;;4.37;2.10;;;6.10;50.60;;;;;;5143348;27;20785;-68
2023/03/29 11:05:21;;;;;;;8.30;2.47;;;6.80;52.20;;;;;;5139166;27;20243;-69
2023/03/29 11:08:18;;;;;;;3.70;1.83;;;7.20;48.30;;;;;;5136656;27;20197;-70
2023/03/29 11:11:12;;;;;;;4.60;1.33;;;7.10;47.20;;;;;;5135190;27;20219;-70
2023/03/29 11:14:02;;;;;;;7.47;2.10;;;6.90;47.20;;;;;;5143231;27;20222;-68
2023/03/29 11:16:53;;;;;;;5.33;2.30;;;6.90;47.30;;;;;;5140994;27;20200;-70
2023/03/29 11:19:56;;;;;;;3.40;2.07;;;7.60;49.60;;;;;;5135420;27;20215;-70
2023/03/29 11:22:47;;;;;;;7.57;2.30;;;7.30;48.70;;;;;;5142631;27;20207;-70
2023/03/29 11:25:42;;;;;;;4.80;2.30;;;7.20;46.40;;;;;;5143547;27;20224;-69
2023/03/29 11:28:32;;;;;;;4.80;2.17;;;6.80;52.20;;;;;;5141651;27;20582;-70
2023/03/29 11:31:24;;;;;;;3.50;1.70;;;7.20;49.20;;;;;;5145830;27;20626;-69
2023/03/29 11:34:19;;;;;;;5.70;1.83;;;7.30;46.50;;;;;;5138437;27;20878;-70
2023/03/29 11:37:14;;;;;;;3.97;2.20;;;7.80;50.50;;;;;;5143013;27;20228;-69
2023/03/29 11:40:09;;;;;;;6.90;2.00;;;8.00;48.50;;;;;;5141000;27;20202;-68
2023/03/29 11:42:56;;;;;;;3.47;1.73;;;8.10;53.30;;;;;;5141375;27;20237;-68
2023/03/29 11:45:45;;;;;;;2.60;1.40;;;8.00;44.10;;;;;;5142100;27;20193;-69
2023/03/29 11:48:35;;;;;;;5.53;1.80;;;7.90;45.70;;;;;;5137304;27;20667;-70
2023/03/29 11:51:23;;;;;;;6.27;2.10;;;7.50;51.00;;;;;;5145512;27;20338;-71
2023/03/29 11:54:16;;;;;;;5.27;1.57;;;7.40;48.30;;;;;;5140569;27;20390;-70
2023/03/29 11:57:05;;;;;;;5.60;2.23;;;7.80;45.80;;;;;;5143371;27;20228;-70
2023/03/29 11:59:54;;;;;;;4.93;1.97;;;8.10;47.60;;;;;;5142097;27;20658;-68
2023/03/29 12:02:44;;;;;;;6.53;1.93;;;8.00;42.50;;;;;;5143583;27;20220;-70
2023/03/29 12:05:33;;;;;;;3.43;1.77;;;8.40;45.90;;;;;;5149293;27;20199;-68
2023/03/29 12:08:22;;;;;;;4.27;1.73;;;8.50;49.30;;;;;;5147163;27;20663;-68
2023/03/29 12:11:14;;;;;;;3.87;1.50;;;8.10;43.40;;;;;;5143586;27;20276;-68
2023/03/29 12:14:03;;;;;;;5.57;2.13;;;7.70;43.70;;;;;;5146143;27;20209;-69
2023/03/29 12:16:52;;;;;;;3.00;2.17;;;7.90;46.10;;;;;;5145171;27;20213;-70
2023/03/29 12:19:43;;;;;;;3.67;2.00;;;8.50;45.00;;;;;;5140278;27;20190;-70
2023/03/29 12:22:30;;;;;;;4.13;2.17;;;8.30;44.90;;;;;;5150087;27;20595;-69
2023/03/29 12:25:19;;;;;;;5.53;2.37;;;8.40;42.60;;;;;;5144679;27;20580;-69
2023/03/29 12:28:16;;;;;;;7.17;2.27;;;8.10;45.00;;;;;;5138842;27;20580;-69
2023/03/29 12:31:08;;;;;;;7.07;2.17;;;8.50;43.70;;;;;;5140347;27;20201;-70
2023/03/29 12:34:07;;;;;;;4.53;2.03;;;9.00;42.60;;;;;;5145389;27;20201;-70
2023/03/29 12:37:16;;;;;;;3.93;2.20;;;9.20;44.30;;;;;;5148860;27;20210;-70
2023/03/29 12:40:10;;;;;;;6.70;2.67;;;9.80;42.60;;;;;;5134985;27;20215;-70
2023/03/29 12:43:01;;;;;;;6.27;2.33;;;9.40;42.10;;;;;;5136545;27;20257;-69
2023/03/29 12:45:52;;;;;;;4.43;2.13;;;8.80;41.30;;;;;;5141126;27;20198;-69
2023/03/29 12:48:40;;;;;;;5.30;2.27;;;9.10;43.30;;;;;;5137538;27;20603;-70
2023/03/29 12:51:30;;;;;;;5.17;2.43;;;9.40;45.80;;;;;;5133247;27;20683;-71
2023/03/29 12:54:19;;;;;;;4.90;2.37;;;9.20;44.90;;;;;;5142820;27;20688;-70
2023/03/29 12:57:19;;;;;;;5.67;2.43;;;9.50;44.50;;;;;;5141742;27;20214;-70
2023/03/29 13:00:19;;;;;;;6.90;2.30;;;9.30;44.50;;;;;;5135714;27;20657;-70
2023/03/29 13:03:21;;;;;;;9.53;3.43;;;9.60;45.40;;;;;;5137994;27;20195;-69
2023/03/29 13:06:09;;;;;;;6.00;3.03;;;10.10;41.80;;;;;;5141508;27;20209;-71
2023/03/29 13:09:01;;;;;;;5.37;2.63;;;10.30;42.60;;;;;;5139980;27;20241;-69
2023/03/29 13:11:52;;;;;;;5.90;3.23;;;8.90;46.00;;;;;;5138968;27;20686;-71
2023/03/29 13:14:41;;;;;;;6.10;3.63;;;9.00;47.50;;;;;;5143637;27;20269;-70
2023/03/29 13:17:34;;;;;;;8.43;4.13;;;9.00;48.30;;;;;;5136840;27;20214;-70
2023/03/29 13:20:36;;;;;;;8.90;3.43;;;10.10;45.00;;;;;;5143218;27;20285;-69
2023/03/29 13:23:29;;;;;;;5.63;3.10;;;10.00;47.30;;;;;;5141440;27;20280;-70
2023/03/29 13:26:41;;;;;;;5.87;3.23;;;10.70;44.60;;;;;;5139622;27;20680;-69
2023/03/29 13:29:53;;;;;;;7.77;3.00;;;10.70;43.70;;;;;;5135179;27;20213;-70
2023/03/29 13:32:48;;;;;;;8.40;4.17;;;11.10;47.40;;;;;;5138970;27;20194;-70
2023/03/29 13:35:42;;;;;;;8.93;3.60;;;11.50;44.60;;;;;;5144129;27;20235;-69
2023/03/29 13:38:30;;;;;;;8.60;3.83;;;10.60;44.10;;;;;;5143734;27;20683;-70
2023/03/29 13:41:27;;;;;;;4.67;2.33;;;10.50;44.80;;;;;;5143223;27;20194;-70
2023/03/29 13:44:24;;;;;;;6.00;3.00;;;9.80;44.00;;;;;;5145681;27;20687;-70
2023/03/29 13:47:27;;;;;;;7.33;3.60;;;9.70;48.00;;;;;;5145477;27;20205;-70
2023/03/29 13:50:17;;;;;;;6.80;3.70;;;9.70;45.80;;;;;;5138169;27;20202;-70
2023/03/29 13:53:10;;;;;;;6.30;2.70;;;9.80;47.20;;;;;;5139513;27;20359;-69
2023/03/29 13:55:57;;;;;;;7.77;2.77;;;9.90;44.60;;;;;;5144575;27;20193;-70
2023/03/29 13:58:46;;;;;;;6.50;2.03;;;9.90;45.70;;;;;;5143066;27;20201;-68
2023/03/29 14:01:37;;;;;;;6.40;2.93;;;8.90;46.50;;;;;;5148107;27;20715;-71
2023/03/29 14:04:26;;;;;;;9.23;2.13;;;8.90;48.00;;;;;;5135699;27;20194;-69
2023/03/29 14:07:14;;;;;;;4.13;2.27;;;9.90;46.10;;;;;;5143098;27;20209;-69
2023/03/29 14:10:03;;;;;;;6.17;3.13;;;9.60;45.10;;;;;;5140757;27;20230;-69
2023/03/29 14:12:51;;;;;;;6.53;2.60;;;9.60;47.70;;;;;;5146606;27;20667;-69
2023/03/29 14:15:45;;;;;;;6.57;2.40;;;9.90;45.40;;;;;;5139299;27;20201;-70
2023/03/29 14:18:33;;;;;;;5.13;2.27;;;10.60;44.90;;;;;;5147392;27;20266;-70
2023/03/29 14:21:21;;;;;;;5.63;2.83;;;10.10;45.20;;;;;;5143798;27;20204;-68
2023/03/29 14:24:11;;;;;;;8.00;2.60;;;10.80;44.40;;;;;;5140879;27;20204;-69
2023/03/29 14:27:02;;;;;;;8.33;2.97;;;10.20;43.70;;;;;;5141019;27;21300;-70
2023/03/29 14:29:51;;;;;;;5.47;2.90;;;9.60;45.80;;;;;;5136349;27;20190;-69
2023/03/29 14:32:38;;;;;;;6.40;2.80;;;10.50;47.70;;;;;;5136565;27;20208;-69